Time;durP1;ratioP1;P1;durP2;ratioP2;P2;SDS_P1;SDS_P2;PMS_P1;PMS_P2;Temp;Humidity;BMP_temperature;BMP_pressure;BME280_temperature;BME280_humidity;BME280_pressure;Samples;Min_cycle;Max_cycle;Signal;HPM_P1;HPM_P2
2022/05/11 00:01:41;;;;;;;5.32;4.00;;;13.80;99.90;;;;;;5038780;28;20045;-66
2022/05/11 00:04:09;;;;;;;9.63;3.90;;;13.80;99.90;;;;;;5020700;28;20191;-67
2022/05/11 00:06:36;;;;;;;6.63;3.72;;;13.70;99.90;;;;;;5019557;28;20064;-67
2022/05/11 00:09:03;;;;;;;5.68;3.50;;;13.70;99.90;;;;;;5043256;28;20573;-67
2022/05/11 00:11:28;;;;;;;6.30;3.65;;;13.70;99.90;;;;;;5044826;28;20452;-67
2022/05/11 00:13:56;;;;;;;5.65;3.90;;;13.70;99.90;;;;;;5056431;28;20124;-67
2022/05/11 00:16:21;;;;;;;5.88;3.60;;;13.70;99.90;;;;;;5057415;28;20112;-66
2022/05/11 00:18:47;;;;;;;6.15;3.63;;;13.70;99.90;;;;;;5055031;28;20468;-67
2022/05/11 00:21:13;;;;;;;4.10;3.67;;;13.70;99.90;;;;;;5051460;28;20036;-67
2022/05/11 00:23:39;;;;;;;4.28;3.65;;;13.70;99.90;;;;;;5073513;28;20032;-66
2022/05/11 00:26:05;;;;;;;4.47;3.22;;;13.60;99.90;;;;;;5064929;28;20044;-67
2022/05/11 00:28:30;;;;;;;6.15;3.10;;;13.60;99.90;;;;;;5059097;28;20043;-67
2022/05/11 00:30:56;;;;;;;5.13;3.63;;;13.60;99.90;;;;;;5061144;28;20036;-66
2022/05/11 00:33:22;;;;;;;4.90;3.30;;;13.60;99.90;;;;;;5049937;28;20040;-66
2022/05/11 00:35:49;;;;;;;5.03;3.30;;;13.60;99.90;;;;;;5061398;28;20028;-66
2022/05/11 00:38:17;;;;;;;4.72;3.45;;;13.60;99.90;;;;;;5068549;28;20028;-67
2022/05/11 00:40:50;;;;;;;5.30;3.28;;;13.60;99.90;;;;;;5071164;28;20048;-67
2022/05/11 00:43:28;;;;;;;6.40;3.30;;;13.60;99.90;;;;;;5055611;28;20047;-67
2022/05/11 00:45:55;;;;;;;4.65;3.08;;;13.60;99.90;;;;;;5063565;28;20040;-66
2022/05/11 00:51:14;;;;;;;5.20;2.90;;;13.60;99.90;;;;;;5055126;28;20048;-66
2022/05/11 00:53:43;;;;;;;3.83;2.97;;;13.60;99.90;;;;;;5074771;28;20036;-66
2022/05/11 00:56:08;;;;;;;5.80;3.40;;;13.60;99.90;;;;;;5061245;28;20398;-66
2022/05/11 00:58:41;;;;;;;5.10;3.08;;;13.60;99.90;;;;;;5073168;28;20047;-66
2022/05/11 01:01:08;;;;;;;4.35;2.80;;;13.60;99.90;;;;;;5071753;28;20093;-66
2022/05/11 01:03:58;;;;;;;4.57;3.20;;;13.60;99.90;;;;;;5068842;28;20052;-67
2022/05/11 01:06:24;;;;;;;5.55;3.35;;;13.60;99.90;;;;;;5068437;28;20040;-66
2022/05/11 01:08:49;;;;;;;6.35;3.17;;;13.60;99.90;;;;;;5073865;28;20060;-67
2022/05/11 01:11:15;;;;;;;5.32;3.08;;;13.60;99.90;;;;;;5055740;28;20048;-67
2022/05/11 01:13:43;;;;;;;5.07;3.25;;;13.60;99.90;;;;;;5047460;28;20044;-66
2022/05/11 01:16:09;;;;;;;4.88;3.13;;;13.60;99.90;;;;;;5036686;28;20647;-67
2022/05/11 01:18:38;;;;;;;4.50;3.33;;;13.60;99.90;;;;;;5050860;28;20040;-67
2022/05/11 01:21:05;;;;;;;4.43;3.25;;;13.60;99.90;;;;;;5051721;28;20060;-67
2022/05/11 01:24:27;;;;;;;8.07;3.60;;;13.60;99.90;;;;;;5045941;28;20045;-66
2022/05/11 01:26:53;;;;;;;5.97;3.30;;;13.60;99.90;;;;;;4953006;28;20062;-67
2022/05/11 01:29:19;;;;;;;5.45;3.50;;;13.60;99.90;;;;;;4954319;28;20047;-67
2022/05/11 01:31:45;;;;;;;8.23;3.58;;;13.60;99.90;;;;;;4945811;28;20059;-66
2022/05/11 01:34:17;;;;;;;4.85;3.38;;;13.60;99.90;;;;;;4938993;28;20045;-66
2022/05/11 01:36:43;;;;;;;5.07;3.45;;;13.60;99.90;;;;;;4940052;28;20437;-67
2022/05/11 01:39:10;;;;;;;4.82;3.38;;;13.60;99.90;;;;;;4959266;28;20462;-67
2022/05/11 01:41:41;;;;;;;5.10;3.35;;;13.60;99.90;;;;;;4950081;28;20422;-67
2022/05/11 01:44:13;;;;;;;7.18;3.58;;;13.60;99.90;;;;;;4961968;28;20054;-69
2022/05/11 01:46:43;;;;;;;4.10;3.20;;;13.60;99.90;;;;;;4949712;28;20051;-67
2022/05/11 01:49:08;;;;;;;5.32;3.33;;;13.60;99.90;;;;;;4954174;28;20086;-66
2022/05/11 01:51:34;;;;;;;6.38;3.22;;;13.50;99.90;;;;;;4951101;28;20535;-67
2022/05/11 01:54:00;;;;;;;5.10;3.25;;;13.60;99.90;;;;;;4945287;28;20082;-67
2022/05/11 01:56:26;;;;;;;5.93;3.28;;;13.60;99.90;;;;;;4939005;28;20055;-67
2022/05/11 01:58:53;;;;;;;6.88;3.63;;;13.50;99.90;;;;;;5036044;28;20029;-67
2022/05/11 02:01:22;;;;;;;5.60;3.47;;;13.50;99.90;;;;;;5032717;28;20037;-67
2022/05/11 02:03:48;;;;;;;5.18;3.47;;;13.50;99.90;;;;;;5070993;28;20044;-67
2022/05/11 02:08:58;;;;;;;6.70;3.75;;;13.60;99.90;;;;;;5048855;28;20053;-67
2022/05/11 02:11:24;;;;;;;5.90;3.72;;;13.50;99.90;;;;;;5044286;28;20055;-67
2022/05/11 02:13:49;;;;;;;6.57;4.15;;;13.60;99.90;;;;;;5035091;28;20033;-67
2022/05/11 02:16:15;;;;;;;5.40;3.92;;;13.50;99.90;;;;;;5047154;28;20049;-67
2022/05/11 02:18:41;;;;;;;5.63;3.50;;;13.60;99.90;;;;;;5047703;28;20040;-67
2022/05/11 02:21:07;;;;;;;5.10;3.38;;;13.60;99.90;;;;;;5051353;28;20059;-67
2022/05/11 02:23:34;;;;;;;4.00;3.30;;;13.60;99.90;;;;;;5048149;28;20387;-67
2022/05/11 02:26:00;;;;;;;4.65;3.60;;;13.60;99.90;;;;;;5051950;28;20115;-67
2022/05/11 02:28:25;;;;;;;7.18;3.22;;;13.60;99.90;;;;;;5048542;28;20127;-67
2022/05/11 02:30:54;;;;;;;5.55;3.10;;;13.60;99.90;;;;;;5051677;28;20127;-67
2022/05/11 02:33:21;;;;;;;6.30;3.20;;;13.60;99.90;;;;;;5044663;28;20050;-67
2022/05/11 02:35:49;;;;;;;6.07;3.22;;;13.60;99.90;;;;;;5039183;28;20103;-67
2022/05/11 02:38:18;;;;;;;5.70;3.13;;;13.60;99.90;;;;;;5049727;28;20131;-67
2022/05/11 02:40:44;;;;;;;6.32;3.10;;;13.60;99.90;;;;;;5048576;28;20048;-68
2022/05/11 02:43:11;;;;;;;6.55;3.33;;;13.60;99.90;;;;;;5044427;28;20055;-67
2022/05/11 02:45:39;;;;;;;5.57;2.88;;;13.60;99.90;;;;;;5032815;28;20575;-67
2022/05/11 02:48:07;;;;;;;6.43;3.25;;;13.60;99.90;;;;;;5039238;28;20036;-67
2022/05/11 02:50:42;;;;;;;7.75;3.17;;;13.60;99.90;;;;;;5045937;28;20119;-67
2022/05/11 02:53:10;;;;;;;4.75;2.83;;;13.60;99.90;;;;;;5040604;28;20054;-68
2022/05/11 02:55:42;;;;;;;5.18;3.40;;;13.60;99.90;;;;;;5050508;28;20051;-67
2022/05/11 02:58:08;;;;;;;5.78;2.90;;;13.60;99.90;;;;;;5055393;28;20106;-67
2022/05/11 03:00:36;;;;;;;5.30;2.88;;;13.60;99.90;;;;;;5050105;28;20036;-67
2022/05/11 03:03:03;;;;;;;4.72;3.10;;;13.50;99.90;;;;;;5047876;28;20037;-67
2022/05/11 03:05:29;;;;;;;6.82;3.03;;;13.50;99.90;;;;;;5049883;28;20087;-67
2022/05/11 03:07:54;;;;;;;3.80;2.70;;;13.50;99.90;;;;;;5065901;28;20765;-67
2022/05/11 03:10:21;;;;;;;6.95;2.78;;;13.50;99.90;;;;;;5046468;28;20049;-67
2022/05/11 03:12:46;;;;;;;4.57;2.90;;;13.50;99.90;;;;;;5051238;28;20411;-67
2022/05/11 03:15:12;;;;;;;5.50;2.50;;;13.50;99.90;;;;;;5036154;28;20032;-67
2022/05/11 03:17:38;;;;;;;6.90;2.75;;;13.50;99.90;;;;;;5032319;28;20052;-66
2022/05/11 03:20:06;;;;;;;5.05;3.15;;;13.50;99.90;;;;;;5032308;28;20040;-67
2022/05/11 03:22:32;;;;;;;6.85;3.30;;;13.50;99.90;;;;;;5031616;28;20132;-66
2022/05/11 03:24:58;;;;;;;5.15;2.60;;;13.50;99.90;;;;;;5024752;28;20051;-67
2022/05/11 03:27:24;;;;;;;4.72;2.65;;;13.50;99.90;;;;;;5048676;28;20471;-67
2022/05/11 03:29:51;;;;;;;6.57;3.00;;;13.50;99.90;;;;;;5072044;28;20039;-67
2022/05/11 03:35:03;;;;;;;6.88;3.03;;;13.40;99.90;;;;;;5050417;28;20418;-67
2022/05/11 03:37:28;;;;;;;8.13;2.75;;;13.40;99.90;;;;;;5038262;28;20122;-67
2022/05/11 03:39:54;;;;;;;5.53;2.50;;;13.40;99.90;;;;;;5053443;28;20041;-67
2022/05/11 03:42:22;;;;;;;3.72;2.50;;;13.40;99.90;;;;;;5054400;28;20045;-67
2022/05/11 03:44:49;;;;;;;5.70;2.65;;;13.40;99.90;;;;;;5051751;28;20032;-67
2022/05/11 03:47:14;;;;;;;8.80;3.35;;;13.40;99.90;;;;;;5053044;28;20032;-67
2022/05/11 03:49:40;;;;;;;5.72;2.60;;;13.50;99.90;;;;;;5050356;28;20416;-67
2022/05/11 03:52:06;;;;;;;6.25;2.80;;;13.40;99.90;;;;;;5039819;28;20120;-67
2022/05/11 03:54:32;;;;;;;5.75;2.58;;;13.40;99.90;;;;;;5041693;28;20485;-67
2022/05/11 03:56:58;;;;;;;8.02;2.80;;;13.50;99.90;;;;;;5062031;28;20041;-67
2022/05/11 03:59:23;;;;;;;6.63;2.90;;;13.50;99.90;;;;;;5038017;28;20786;-67
2022/05/11 04:01:49;;;;;;;5.82;3.00;;;13.50;99.90;;;;;;5034980;28;20052;-67
2022/05/11 04:04:15;;;;;;;6.88;2.83;;;13.50;99.90;;;;;;5043289;28;20040;-66
2022/05/11 04:06:40;;;;;;;5.78;2.83;;;13.50;99.90;;;;;;5049042;28;20131;-67
2022/05/11 04:09:06;;;;;;;7.43;3.33;;;13.50;99.90;;;;;;5036599;28;20049;-67
2022/05/11 04:11:33;;;;;;;6.95;2.90;;;13.50;99.90;;;;;;5045865;28;20049;-67
2022/05/11 04:13:59;;;;;;;8.25;3.50;;;13.50;99.90;;;;;;5056638;28;20033;-67
2022/05/11 04:16:25;;;;;;;4.28;2.70;;;13.60;99.90;;;;;;5025145;28;20052;-67
2022/05/11 04:18:50;;;;;;;9.13;3.92;;;13.50;99.90;;;;;;5049642;28;20059;-67
2022/05/11 04:21:16;;;;;;;5.82;3.47;;;13.50;99.90;;;;;;5021629;28;20049;-67
2022/05/11 04:23:42;;;;;;;6.32;3.58;;;13.50;99.90;;;;;;5055267;28;20130;-67
2022/05/11 04:26:12;;;;;;;5.35;3.17;;;13.50;99.90;;;;;;5042785;28;20132;-67
2022/05/11 04:28:39;;;;;;;6.78;3.03;;;13.60;99.90;;;;;;5046124;28;20131;-67
2022/05/11 04:31:09;;;;;;;7.97;3.33;;;13.60;99.90;;;;;;5052943;28;20170;-68
2022/05/11 04:33:36;;;;;;;6.50;3.40;;;13.60;99.90;;;;;;5052861;28;20037;-66
2022/05/11 04:36:03;;;;;;;8.25;3.38;;;13.60;99.90;;;;;;5052418;28;20059;-67
2022/05/11 04:38:29;;;;;;;9.95;3.53;;;13.60;99.90;;;;;;5051358;28;20041;-67
2022/05/11 04:40:55;;;;;;;7.60;3.70;;;13.70;99.90;;;;;;5044079;28;20053;-67
2022/05/11 04:43:21;;;;;;;7.32;4.13;;;13.70;99.90;;;;;;5034547;28;20124;-67
2022/05/11 04:45:47;;;;;;;9.95;4.15;;;13.70;99.90;;;;;;5034690;28;20122;-67
2022/05/11 04:48:14;;;;;;;6.97;4.20;;;13.70;99.90;;;;;;5070243;28;20036;-67
2022/05/11 04:50:42;;;;;;;8.30;3.63;;;13.70;99.90;;;;;;5047962;28;20051;-67
2022/05/11 04:53:10;;;;;;;5.63;3.65;;;13.70;99.90;;;;;;5054306;28;20126;-67
2022/05/11 04:55:36;;;;;;;7.85;3.50;;;13.70;99.90;;;;;;5050324;28;20534;-67
2022/05/11 04:58:04;;;;;;;6.55;3.78;;;13.70;99.90;;;;;;5033987;28;20119;-67
2022/05/11 05:00:30;;;;;;;7.60;3.90;;;13.70;99.90;;;;;;5064663;28;20032;-67
2022/05/11 05:02:56;;;;;;;7.90;3.97;;;13.70;99.90;;;;;;5061379;28;20467;-68
2022/05/11 05:05:21;;;;;;;6.15;3.80;;;13.80;99.90;;;;;;5037841;28;20055;-67
2022/05/11 05:07:47;;;;;;;6.85;3.90;;;13.70;99.90;;;;;;5037233;28;20127;-67
2022/05/11 05:10:14;;;;;;;8.25;4.28;;;13.80;99.90;;;;;;5037519;28;20033;-67
2022/05/11 05:12:44;;;;;;;7.03;3.85;;;13.80;99.90;;;;;;5052327;28;20113;-67
2022/05/11 05:15:14;;;;;;;6.60;4.22;;;13.80;99.90;;;;;;5044020;28;20048;-67
2022/05/11 05:17:40;;;;;;;8.60;4.10;;;13.80;99.90;;;;;;5051401;28;20131;-67
2022/05/11 05:20:07;;;;;;;8.73;4.20;;;13.80;99.90;;;;;;5053998;28;20135;-66
2022/05/11 05:22:34;;;;;;;17.80;5.03;;;13.80;99.90;;;;;;5051672;28;20048;-67
2022/05/11 05:25:00;;;;;;;9.93;4.15;;;13.80;99.90;;;;;;5043528;28;20198;-67
2022/05/11 05:27:26;;;;;;;8.88;4.35;;;13.90;99.90;;;;;;5043140;28;20128;-67
2022/05/11 05:32:38;;;;;;;6.32;3.83;;;13.90;99.90;;;;;;5050432;28;20511;-67
2022/05/11 05:35:08;;;;;;;8.15;3.80;;;14.00;99.90;;;;;;5047272;28;20403;-67
2022/05/11 05:37:34;;;;;;;9.50;4.80;;;14.10;99.90;;;;;;5051222;28;20045;-67
2022/05/11 05:40:01;;;;;;;8.55;3.50;;;14.20;99.90;;;;;;5048372;28;20047;-67
2022/05/11 05:42:28;;;;;;;10.95;4.20;;;14.20;99.90;;;;;;5042736;28;20037;-67
2022/05/11 05:44:54;;;;;;;6.70;3.55;;;14.20;99.90;;;;;;5048070;28;20052;-67
2022/05/11 05:47:20;;;;;;;6.05;3.70;;;14.20;99.90;;;;;;5051890;28;20040;-67
2022/05/11 05:49:46;;;;;;;5.85;3.67;;;14.20;99.90;;;;;;5050944;28;20087;-67
2022/05/11 05:52:24;;;;;;;8.23;3.90;;;14.20;99.90;;;;;;5052697;28;20075;-67
2022/05/11 05:54:54;;;;;;;7.28;3.53;;;14.10;99.90;;;;;;5042363;28;20399;-67
2022/05/11 05:57:20;;;;;;;6.57;3.13;;;14.20;99.90;;;;;;5039538;28;20531;-67
2022/05/11 05:59:46;;;;;;;6.95;3.85;;;14.10;99.90;;;;;;5047326;28;20156;-67
2022/05/11 06:02:13;;;;;;;8.50;3.83;;;14.10;99.90;;;;;;5032868;28;20120;-67
2022/05/11 06:04:57;;;;;;;10.68;4.15;;;14.20;99.90;;;;;;5042129;28;20605;-67
2022/05/11 06:07:22;;;;;;;8.75;3.60;;;14.20;99.90;;;;;;5052477;28;20056;-67
2022/05/11 06:09:48;;;;;;;7.05;3.72;;;14.20;99.90;;;;;;5049308;28;20483;-68
2022/05/11 06:12:15;;;;;;;7.03;3.60;;;14.30;99.90;;;;;;5031767;28;20051;-67
2022/05/11 06:14:42;;;;;;;8.00;4.03;;;14.30;99.90;;;;;;5077788;28;20082;-67
2022/05/11 06:17:25;;;;;;;4.90;2.85;;;14.40;99.90;;;;;;5062340;28;20036;-67
2022/05/11 06:19:54;;;;;;;6.07;2.90;;;14.40;99.90;;;;;;5060252;28;20040;-67
2022/05/11 06:22:21;;;;;;;7.90;3.17;;;14.50;99.90;;;;;;5045198;28;20036;-68
2022/05/11 06:24:47;;;;;;;8.75;3.17;;;14.50;99.90;;;;;;5088065;28;20036;-68
2022/05/11 06:27:18;;;;;;;7.50;3.10;;;14.50;99.90;;;;;;5071805;28;20448;-67
2022/05/11 06:29:54;;;;;;;8.70;2.78;;;14.50;99.90;;;;;;5063395;28;20171;-68
2022/05/11 06:32:22;;;;;;;6.85;2.90;;;14.60;99.90;;;;;;5070054;28;20436;-67
2022/05/11 06:34:48;;;;;;;7.97;2.70;;;14.60;99.90;;;;;;5059476;28;20724;-68
2022/05/11 06:37:14;;;;;;;6.47;2.80;;;14.60;99.90;;;;;;5060007;28;20103;-68
2022/05/11 06:39:40;;;;;;;8.15;2.97;;;14.70;99.90;;;;;;5058508;28;20078;-67
2022/05/11 06:42:07;;;;;;;6.70;2.70;;;14.70;99.90;;;;;;5081071;28;20478;-67
2022/05/11 06:44:34;;;;;;;7.35;2.80;;;14.80;99.90;;;;;;5057113;28;20101;-67
2022/05/11 06:46:59;;;;;;;5.95;2.80;;;14.80;99.90;;;;;;5052307;28;20633;-67
2022/05/11 06:49:25;;;;;;;8.48;3.70;;;14.80;99.90;;;;;;5052076;28;20039;-67
2022/05/11 06:51:51;;;;;;;8.32;2.58;;;14.90;99.90;;;;;;5051828;28;20071;-68
2022/05/11 06:59:44;;;;;;;6.43;2.42;;;15.10;99.90;;;;;;5060284;28;20431;-67
2022/05/11 07:02:10;;;;;;;6.70;1.90;;;15.10;99.90;;;;;;5064389;28;20129;-67
2022/05/11 07:04:37;;;;;;;5.68;1.70;;;15.10;99.90;;;;;;5061721;28;20434;-67
2022/05/11 07:07:05;;;;;;;5.43;1.73;;;15.10;99.90;;;;;;5068140;28;20063;-67
2022/05/11 07:09:32;;;;;;;9.68;1.80;;;15.20;99.90;;;;;;5066427;28;20039;-67
2022/05/11 07:12:17;;;;;;;7.20;1.98;;;15.20;99.90;;;;;;5061901;28;20186;-67
2022/05/11 07:14:48;;;;;;;8.02;1.80;;;15.30;99.90;;;;;;5059900;28;20563;-67
2022/05/11 07:17:35;;;;;;;5.47;1.60;;;15.30;99.90;;;;;;5073924;28;20399;-67
2022/05/11 07:20:26;;;;;;;6.85;1.85;;;15.30;99.90;;;;;;5092781;28;20071;-68
2022/05/11 07:22:55;;;;;;;8.68;1.63;;;15.40;99.90;;;;;;5066601;28;20040;-67
2022/05/11 07:25:24;;;;;;;6.82;2.03;;;15.50;99.90;;;;;;5057148;28;20036;-67
2022/05/11 07:27:50;;;;;;;6.25;1.50;;;15.50;99.90;;;;;;5074061;28;20085;-67
2022/05/11 07:30:19;;;;;;;8.77;1.77;;;15.50;99.90;;;;;;5055964;28;20391;-68
2022/05/11 07:32:45;;;;;;;7.18;1.50;;;15.50;99.90;;;;;;5062947;28;20042;-67
2022/05/11 07:35:11;;;;;;;8.00;1.55;;;15.60;99.90;;;;;;5074834;28;20448;-67
2022/05/11 07:37:37;;;;;;;5.68;1.48;;;15.60;99.90;;;;;;5075691;28;20048;-67
2022/05/11 07:40:05;;;;;;;11.63;1.90;;;15.70;99.90;;;;;;5075606;28;20044;-67
2022/05/11 07:42:31;;;;;;;6.15;1.30;;;15.70;99.90;;;;;;5073087;28;20044;-67
2022/05/11 07:44:57;;;;;;;9.45;1.40;;;15.70;99.90;;;;;;5055718;28;20028;-67
2022/05/11 07:47:23;;;;;;;8.23;1.70;;;15.70;99.90;;;;;;5073644;28;20035;-67
2022/05/11 07:49:49;;;;;;;7.70;1.85;;;15.70;99.90;;;;;;5093779;28;20381;-67
2022/05/11 07:52:14;;;;;;;6.50;1.60;;;15.70;99.90;;;;;;5073704;28;20036;-68
2022/05/11 07:54:41;;;;;;;5.82;2.05;;;15.80;99.90;;;;;;5064680;28;20409;-67
2022/05/11 07:59:52;;;;;;;4.20;1.42;;;15.90;99.90;;;;;;5060536;28;20047;-67
2022/05/11 08:02:18;;;;;;;10.68;1.58;;;16.00;99.90;;;;;;5056560;28;20044;-67
2022/05/11 08:04:45;;;;;;;9.73;1.80;;;16.30;99.90;;;;;;5068041;28;20406;-67
2022/05/11 08:07:13;;;;;;;8.00;1.52;;;16.60;99.90;;;;;;5063252;28;20059;-67
2022/05/11 08:09:40;;;;;;;4.15;1.50;;;16.80;99.90;;;;;;5055352;28;20055;-67
2022/05/11 08:12:06;;;;;;;5.70;1.30;;;16.90;99.90;;;;;;5056460;28;20055;-67
2022/05/11 08:14:32;;;;;;;6.57;2.00;;;16.80;99.90;;;;;;5075171;28;20099;-67
2022/05/11 08:16:57;;;;;;;7.13;1.60;;;17.10;99.90;;;;;;5069840;28;20094;-67
2022/05/11 08:19:24;;;;;;;7.72;1.55;;;17.00;99.90;;;;;;5059168;28;20036;-67
2022/05/11 08:21:51;;;;;;;8.50;1.30;;;17.10;99.90;;;;;;5060907;28;20044;-67
2022/05/11 08:24:18;;;;;;;8.52;1.90;;;17.00;99.90;;;;;;5061633;28;20418;-67
2022/05/11 08:26:46;;;;;;;5.78;1.63;;;17.10;99.90;;;;;;5062641;28;20501;-67
2022/05/11 08:33:19;;;;;;;8.13;1.58;;;17.10;99.90;;;;;;5046518;28;20405;-67
2022/05/11 08:34:44;;;;;;;7.07;1.70;;;17.10;99.90;;;;;;5064460;28;20443;-68
2022/05/11 08:37:09;;;;;;;5.82;1.42;;;17.30;99.90;;;;;;5069340;28;20934;-67
2022/05/11 08:39:35;;;;;;;9.57;1.80;;;17.30;99.90;;;;;;5067789;28;20039;-67
2022/05/11 08:42:02;;;;;;;5.38;1.25;;;17.70;99.90;;;;;;5092673;28;20514;-67
2022/05/11 08:44:32;;;;;;;8.52;2.10;;;17.80;99.90;;;;;;5055417;28;20082;-68
2022/05/11 08:47:06;;;;;;;6.22;1.50;;;17.90;99.90;;;;;;5054275;28;20048;-68
2022/05/11 08:49:54;;;;;;;8.00;1.70;;;18.00;99.90;;;;;;5064721;28;20074;-68
2022/05/11 08:52:40;;;;;;;9.60;2.67;;;17.80;99.80;;;;;;5053898;28;20086;-67
2022/05/11 08:55:37;;;;;;;7.95;1.55;;;17.80;99.90;;;;;;5055953;28;20395;-67
2022/05/11 08:58:09;;;;;;;6.25;1.95;;;17.90;99.90;;;;;;5053988;28;20040;-68
2022/05/11 09:00:39;;;;;;;9.85;1.70;;;17.90;99.80;;;;;;5062945;28;20047;-68
2022/05/11 09:03:17;;;;;;;8.25;1.83;;;18.00;99.70;;;;;;5091885;28;20054;-68
2022/05/11 09:05:43;;;;;;;11.15;2.38;;;18.20;99.50;;;;;;5060450;28;20094;-67
2022/05/11 09:08:11;;;;;;;5.05;1.50;;;18.20;99.60;;;;;;5053791;28;20479;-67
2022/05/11 09:10:38;;;;;;;7.90;1.85;;;18.40;99.70;;;;;;5079506;28;20040;-67
2022/05/11 09:13:10;;;;;;;5.65;1.42;;;18.60;99.70;;;;;;5053855;28;20048;-67
2022/05/11 09:15:49;;;;;;;7.15;1.50;;;18.80;99.10;;;;;;5034785;28;20041;-67
2022/05/11 09:18:15;;;;;;;10.95;1.48;;;18.80;98.20;;;;;;5034346;28;20495;-67
2022/05/11 09:20:55;;;;;;;7.75;1.50;;;19.00;98.30;;;;;;5052217;28;20050;-68
2022/05/11 09:23:34;;;;;;;5.93;1.65;;;19.00;97.60;;;;;;5071673;28;20074;-67
2022/05/11 09:26:08;;;;;;;5.80;1.30;;;19.10;97.00;;;;;;5040625;28;20135;-68
2022/05/11 09:28:37;;;;;;;5.13;1.08;;;19.00;97.30;;;;;;5033601;28;20052;-68
2022/05/11 09:31:08;;;;;;;6.07;1.42;;;19.00;96.70;;;;;;5017223;28;20379;-67
2022/05/11 09:33:39;;;;;;;4.20;1.13;;;19.00;97.40;;;;;;5033933;28;20057;-68
2022/05/11 09:36:07;;;;;;;7.68;1.20;;;19.10;97.10;;;;;;5041129;28;20052;-67
2022/05/11 09:38:42;;;;;;;4.68;1.30;;;19.10;97.00;;;;;;5035273;28;20041;-68
2022/05/11 09:41:10;;;;;;;7.25;1.00;;;19.10;96.30;;;;;;5034490;28;20451;-68
2022/05/11 09:43:41;;;;;;;4.35;1.48;;;19.30;96.30;;;;;;5050941;28;20044;-67
2022/05/11 09:46:31;;;;;;;3.95;1.05;;;19.30;95.60;;;;;;5053195;28;20040;-68
2022/05/11 09:49:09;;;;;;;4.72;1.10;;;19.50;95.70;;;;;;5049255;28;20040;-67
2022/05/11 09:51:50;;;;;;;3.47;1.15;;;19.60;95.50;;;;;;5038285;28;20044;-68
2022/05/11 09:54:48;;;;;;;4.82;1.30;;;19.60;95.40;;;;;;5033442;28;20048;-68
2022/05/11 09:57:27;;;;;;;5.43;1.52;;;19.40;95.70;;;;;;5030575;28;20053;-67
2022/05/11 10:00:05;;;;;;;5.68;1.42;;;19.20;95.60;;;;;;5041363;28;20047;-68
2022/05/11 10:02:48;;;;;;;4.43;1.30;;;18.90;95.90;;;;;;5048126;28;20048;-68
2022/05/11 10:05:29;;;;;;;3.60;1.23;;;19.10;96.30;;;;;;5033260;28;20399;-67
2022/05/11 10:08:01;;;;;;;8.23;1.40;;;18.90;96.00;;;;;;5037552;28;20039;-68
2022/05/11 10:10:27;;;;;;;8.00;1.48;;;18.70;96.40;;;;;;5046612;28;20514;-68
2022/05/11 10:12:58;;;;;;;5.85;1.50;;;18.60;97.00;;;;;;5065849;28;20056;-68
2022/05/11 10:21:53;;;;;;;5.47;1.30;;;18.80;96.70;;;;;;5053289;28;20376;-67
2022/05/11 10:24:49;;;;;;;6.75;1.20;;;19.10;96.50;;;;;;5006147;28;20046;-68
2022/05/11 10:27:23;;;;;;;7.70;1.80;;;19.40;96.30;;;;;;4990813;28;20436;-67
2022/05/11 10:29:52;;;;;;;7.63;1.55;;;19.70;96.20;;;;;;4989641;28;20117;-67
2022/05/11 10:32:38;;;;;;;8.05;1.23;;;19.60;96.00;;;;;;4990078;28;20108;-68
2022/05/11 10:35:18;;;;;;;6.00;1.65;;;19.50;96.00;;;;;;5008162;28;20042;-67
2022/05/11 10:38:15;;;;;;;7.25;1.67;;;19.80;95.60;;;;;;4989342;28;20069;-67
2022/05/11 10:40:48;;;;;;;11.80;2.00;;;20.00;96.80;;;;;;4986810;28;20421;-68
2022/05/11 10:43:39;;;;;;;9.23;1.95;;;20.10;96.60;;;;;;4990088;28;20042;-67
2022/05/11 10:46:18;;;;;;;10.13;1.70;;;20.40;95.80;;;;;;4974959;28;20583;-67
2022/05/11 10:48:58;;;;;;;7.90;2.00;;;20.30;95.30;;;;;;4990325;28;20054;-68
2022/05/11 10:52:01;;;;;;;5.53;1.35;;;20.20;94.80;;;;;;4991474;28;20133;-66
2022/05/11 10:54:45;;;;;;;5.47;1.33;;;20.00;95.30;;;;;;4991842;28;20042;-67
2022/05/11 10:57:48;;;;;;;4.97;1.60;;;20.30;96.00;;;;;;4992616;28;20129;-67
2022/05/11 11:00:18;;;;;;;7.75;1.60;;;20.50;95.50;;;;;;5052054;28;20107;-67
2022/05/11 11:03:05;;;;;;;12.13;2.28;;;20.20;96.40;;;;;;5052263;28;20102;-67
2022/05/11 11:09:04;;;;;;;9.63;2.15;;;20.40;96.40;;;;;;5070562;28;20051;-67
2022/05/11 11:12:11;;;;;;;8.93;1.75;;;20.50;95.90;;;;;;5043571;28;20527;-67
2022/05/11 11:14:44;;;;;;;10.40;1.80;;;20.20;95.80;;;;;;4935418;29;20446;-67
2022/05/11 11:17:15;;;;;;;6.00;1.52;;;20.50;96.60;;;;;;4935376;28;20497;-67
2022/05/11 11:19:44;;;;;;;8.13;2.13;;;20.50;96.20;;;;;;4933817;28;20127;-67
2022/05/11 11:22:09;;;;;;;9.07;2.03;;;20.50;96.30;;;;;;4934112;28;20047;-67
2022/05/11 11:24:37;;;;;;;10.20;1.73;;;20.40;95.80;;;;;;4933623;29;20055;-67
2022/05/11 11:27:03;;;;;;;13.57;2.28;;;20.20;95.20;;;;;;4934064;28;20101;-67
2022/05/11 11:29:29;;;;;;;6.63;1.80;;;20.00;96.10;;;;;;4951155;28;20054;-67
2022/05/11 11:31:58;;;;;;;9.93;1.42;;;20.20;96.20;;;;;;4952660;28;20055;-67
2022/05/11 11:34:31;;;;;;;8.70;1.58;;;20.00;95.80;;;;;;4932563;28;20102;-67
2022/05/11 11:37:18;;;;;;;8.38;1.90;;;20.20;96.80;;;;;;4938444;28;20042;-67
2022/05/11 11:39:55;;;;;;;7.05;1.83;;;20.20;95.80;;;;;;4949683;28;20448;-67
2022/05/11 11:42:32;;;;;;;7.25;1.65;;;20.30;95.70;;;;;;4939486;28;20051;-67
2022/05/11 11:44:57;;;;;;;10.98;1.65;;;20.20;95.90;;;;;;4941743;28;20416;-67
2022/05/11 11:47:26;;;;;;;12.88;1.63;;;20.20;96.00;;;;;;4940403;28;20386;-67
2022/05/11 11:49:54;;;;;;;8.63;1.70;;;20.20;95.70;;;;;;4946647;28;20226;-68
2022/05/11 11:52:37;;;;;;;8.40;2.10;;;20.20;95.70;;;;;;5041576;28;20057;-67
2022/05/11 11:55:23;;;;;;;6.47;1.73;;;20.40;95.80;;;;;;5028241;28;20059;-67
2022/05/11 11:58:14;;;;;;;8.77;1.88;;;20.50;95.90;;;;;;5046499;28;20040;-67
2022/05/11 12:00:45;;;;;;;9.60;1.83;;;20.60;95.40;;;;;;5045075;28;20059;-67
2022/05/11 12:03:22;;;;;;;7.70;2.15;;;20.50;96.20;;;;;;5041756;28;20049;-67
2022/05/11 12:05:55;;;;;;;6.28;1.35;;;20.40;95.70;;;;;;5053418;28;20040;-67
2022/05/11 12:17:00;;;;;;;9.35;1.90;;;20.30;94.90;;;;;;5035156;28;20044;-68
2022/05/11 12:19:32;;;;;;;7.47;1.60;;;20.20;94.90;;;;;;5042233;28;20112;-68
2022/05/11 12:22:03;;;;;;;10.57;1.90;;;20.30;95.10;;;;;;5035294;28;20705;-67
2022/05/11 12:24:33;;;;;;;8.75;2.15;;;20.30;95.40;;;;;;5042526;28;20037;-67
2022/05/11 12:27:03;;;;;;;7.68;1.75;;;20.40;95.80;;;;;;5035253;28;20535;-67
2022/05/11 12:32:25;;;;;;;11.18;2.00;;;20.50;94.50;;;;;;5034697;28;20070;-68
2022/05/11 12:34:52;;;;;;;11.43;2.03;;;20.40;94.10;;;;;;5035568;28;20040;-67
2022/05/11 12:37:30;;;;;;;9.18;1.75;;;20.40;94.80;;;;;;5036453;28;20087;-67
2022/05/11 12:40:19;;;;;;;8.23;1.63;;;20.30;94.70;;;;;;5053064;28;20025;-67
2022/05/11 12:42:48;;;;;;;7.80;1.80;;;20.20;95.20;;;;;;5054411;28;20032;-67
2022/05/11 12:45:35;;;;;;;11.05;1.95;;;20.20;95.40;;;;;;5054705;28;20422;-67
2022/05/11 12:48:03;;;;;;;9.82;1.70;;;20.20;95.70;;;;;;5054333;28;20044;-67
2022/05/11 12:50:34;;;;;;;11.75;2.15;;;20.30;95.50;;;;;;5030745;28;20075;-67
2022/05/11 12:53:15;;;;;;;8.43;1.95;;;20.10;94.80;;;;;;5034382;28;20037;-67
2022/05/11 12:55:41;;;;;;;8.43;1.95;;;20.20;95.60;;;;;;5034475;28;20041;-68
2022/05/11 12:58:06;;;;;;;10.50;2.35;;;20.30;95.60;;;;;;5034174;28;20030;-67
2022/05/11 13:00:34;;;;;;;9.25;2.00;;;20.40;96.50;;;;;;5038120;28;20094;-67
2022/05/11 13:03:19;;;;;;;12.13;2.33;;;20.30;95.40;;;;;;5053978;28;20112;-67
2022/05/11 13:05:45;;;;;;;9.75;1.95;;;20.20;95.90;;;;;;5054030;28;20570;-67
2022/05/11 13:08:14;;;;;;;10.60;1.98;;;20.10;95.10;;;;;;5053986;28;20048;-67
2022/05/11 13:10:41;;;;;;;9.07;1.77;;;20.10;95.60;;;;;;5052807;28;20126;-67
2022/05/11 13:13:14;;;;;;;14.80;2.22;;;20.20;95.90;;;;;;5051431;28;20049;-67
2022/05/11 13:15:41;;;;;;;9.20;2.00;;;20.10;95.60;;;;;;5053682;28;20048;-67
2022/05/11 13:18:11;;;;;;;10.48;2.05;;;20.00;96.00;;;;;;5053510;28;21211;-67
2022/05/11 13:20:40;;;;;;;10.10;2.20;;;19.80;95.70;;;;;;5053678;28;20052;-67
2022/05/11 13:23:19;;;;;;;9.43;1.92;;;19.70;96.10;;;;;;5055502;28;20032;-67
2022/05/11 13:25:54;;;;;;;14.07;2.83;;;19.60;96.10;;;;;;5053520;28;20072;-67
2022/05/11 13:28:20;;;;;;;11.88;2.40;;;19.40;96.50;;;;;;5054048;28;20542;-67
2022/05/11 13:30:47;;;;;;;12.43;2.20;;;19.60;97.40;;;;;;5053667;28;20511;-67
2022/05/11 13:33:32;;;;;;;9.35;1.95;;;19.80;97.40;;;;;;5056090;28;20129;-67
2022/05/11 13:36:20;;;;;;;14.93;2.35;;;19.80;96.50;;;;;;5053503;28;20085;-67
2022/05/11 13:38:59;;;;;;;11.30;2.20;;;19.70;96.70;;;;;;5053262;28;20120;-67
2022/05/11 13:41:38;;;;;;;15.25;2.60;;;19.50;96.70;;;;;;5053485;28;20044;-67
2022/05/11 13:44:38;;;;;;;10.90;2.30;;;19.60;97.00;;;;;;5054210;28;20044;-67
2022/05/11 13:50:37;;;;;;;;;;;19.60;96.00;;;;;;4969577;28;20093;-67